Time;durP1;ratioP1;P1;durP2;ratioP2;P2;SDS_P1;SDS_P2;PMS_P1;PMS_P2;Temp;Humidity;BMP_temperature;BMP_pressure;BME280_temperature;BME280_humidity;BME280_pressure;Samples;Min_cycle;Max_cycle;Signal;HPM_P1;HPM_P2
2022/12/21 00:01:18;;;;;;;;;;;10.90;99.90;;;;;;5035115;28;19971;-91
2022/12/21 00:03:43;;;;;;;;;;;11.00;99.90;;;;;;5035084;28;19952;-91
2022/12/21 00:06:10;;;;;;;;;;;11.10;99.90;;;;;;5036216;28;19967;-91
2022/12/21 00:08:36;;;;;;;;;;;11.10;99.90;;;;;;5035343;28;19909;-90
2022/12/21 00:11:01;;;;;;;;;;;11.10;99.90;;;;;;5034903;28;20004;-90
2022/12/21 00:13:27;;;;;;;;;;;11.10;99.90;;;;;;5035012;28;19952;-90
2022/12/21 00:15:56;;;;;;;;;;;11.20;99.90;;;;;;5034911;28;20434;-91
2022/12/21 00:18:22;;;;;;;;;;;11.20;99.90;;;;;;5034960;28;19909;-90
2022/12/21 00:20:55;;;;;;;;;;;11.20;99.90;;;;;;5034910;28;20327;-91
2022/12/21 00:23:21;;;;;;;;;;;11.20;99.90;;;;;;5018363;28;19913;-90
2022/12/21 00:25:46;;;;;;;;;;;11.30;99.90;;;;;;5018184;28;20442;-90
2022/12/21 00:28:12;;;;;;;;;;;11.30;99.90;;;;;;5018004;28;19909;-90
2022/12/21 00:30:37;;;;;;;;;;;11.30;99.90;;;;;;5018000;28;19917;-90
2022/12/21 00:33:03;;;;;;;;;;;11.20;99.90;;;;;;5017941;28;20298;-90
2022/12/21 00:35:28;;;;;;;;;;;11.30;99.90;;;;;;5017937;28;19967;-90
2022/12/21 00:37:54;;;;;;;;;;;11.30;99.90;;;;;;5017466;28;19916;-91
2022/12/21 00:40:19;;;;;;;;;;;11.40;99.90;;;;;;5018132;28;20334;-90
2022/12/21 00:42:45;;;;;;;;;;;11.50;99.90;;;;;;5017860;28;19944;-90
2022/12/21 00:45:10;;;;;;;;;;;11.50;99.90;;;;;;5017819;28;20007;-91
2022/12/21 00:47:35;;;;;;;;;;;11.50;99.90;;;;;;5035554;28;20351;-90
2022/12/21 00:50:01;;;;;;;;;;;11.50;99.90;;;;;;5017881;28;19967;-90
2022/12/21 00:52:27;;;;;;;;;;;11.50;99.90;;;;;;5017950;28;19916;-90
2022/12/21 00:54:52;;;;;;;;;;;11.60;99.90;;;;;;5017637;28;20003;-89
2022/12/21 00:57:18;;;;;;;;;;;11.60;99.90;;;;;;5017649;28;19917;-90
2022/12/21 00:59:43;;;;;;;;;;;11.70;99.90;;;;;;5017637;28;19909;-90
2022/12/21 01:02:09;;;;;;;;;;;11.60;99.90;;;;;;5017448;28;19917;-91
2022/12/21 01:04:34;;;;;;;;;;;11.70;99.90;;;;;;5035178;28;20306;-91
2022/12/21 01:06:59;;;;;;;;;;;11.60;99.90;;;;;;5017336;28;19913;-90
2022/12/21 01:09:25;;;;;;;;;;;11.60;99.90;;;;;;5017360;28;19909;-91
2022/12/21 01:11:50;;;;;;;;;;;11.50;99.90;;;;;;5017273;28;19917;-92
2022/12/21 01:14:16;;;;;;;;;;;11.60;99.90;;;;;;5017328;28;19916;-91
2022/12/21 01:16:41;;;;;;;;;;;11.60;99.90;;;;;;5017271;28;20389;-90
2022/12/21 01:19:07;;;;;;;;;;;11.70;99.90;;;;;;5017567;28;19994;-88
2022/12/21 01:21:33;;;;;;;;;;;11.70;99.90;;;;;;5021583;28;19987;-88
2022/12/21 01:23:59;;;;;;;;;;;11.70;99.90;;;;;;5033677;28;20009;-88
2022/12/21 01:26:24;;;;;;;;;;;11.60;99.90;;;;;;5033591;28;19913;-88
2022/12/21 01:28:50;;;;;;;;;;;11.60;99.90;;;;;;5033597;28;19909;-88
2022/12/21 01:31:15;;;;;;;;;;;11.70;99.90;;;;;;5033480;28;19913;-88
2022/12/21 01:33:41;;;;;;;;;;;11.70;99.90;;;;;;5033429;28;20393;-88
2022/12/21 01:36:07;;;;;;;;;;;11.70;99.90;;;;;;5033437;28;20325;-88
2022/12/21 01:38:33;;;;;;;;;;;11.70;99.90;;;;;;5033364;28;19909;-88
2022/12/21 01:40:59;;;;;;;;;;;11.70;99.90;;;;;;5033378;28;19916;-89
2022/12/21 01:43:42;;;;;;;;;;;11.70;99.90;;;;;;5032820;28;19910;-89
2022/12/21 01:46:10;;;;;;;;;;;11.70;99.90;;;;;;5032671;28;19913;-88
2022/12/21 01:48:39;;;;;;;;;;;11.70;99.90;;;;;;5033841;28;20012;-89
2022/12/21 01:51:05;;;;;;;;;;;11.70;99.90;;;;;;5032743;28;19915;-88
2022/12/21 01:53:36;;;;;;;;;;;11.60;99.90;;;;;;5032834;28;19916;-89
2022/12/21 01:56:04;;;;;;;;;;;11.60;99.90;;;;;;5032791;28;19909;-88
2022/12/21 01:58:30;;;;;;;;;;;11.60;99.90;;;;;;5032448;28;19909;-89
2022/12/21 02:00:57;;;;;;;;;;;11.60;99.90;;;;;;5033568;28;19909;-87
2022/12/21 02:03:24;;;;;;;;;;;11.60;99.90;;;;;;5032437;28;19916;-89
2022/12/21 02:05:54;;;;;;;;;;;11.60;99.90;;;;;;5032844;28;20016;-88
2022/12/21 02:08:20;;;;;;;;;;;11.60;99.90;;;;;;5033600;28;19917;-87
2022/12/21 02:10:46;;;;;;;;;;;11.60;99.90;;;;;;5032267;28;19909;-89
2022/12/21 02:13:13;;;;;;;;;;;11.60;99.90;;;;;;5032078;28;19909;-88
2022/12/21 02:15:57;;;;;;;;;;;11.60;99.90;;;;;;5032064;28;19913;-89
2022/12/21 02:18:41;;;;;;;;;;;11.50;99.90;;;;;;5033356;28;19910;-88
2022/12/21 02:21:12;;;;;;;;;;;11.50;99.90;;;;;;5033067;28;20012;-90
2022/12/21 02:23:38;;;;;;;;;;;11.50;99.90;;;;;;5015591;28;19913;-91
2022/12/21 02:26:10;;;;;;;;;;;11.50;99.90;;;;;;5015513;28;19920;-91
2022/12/21 02:28:35;;;;;;;;;;;11.50;99.90;;;;;;5033142;28;19916;-91
2022/12/21 02:31:15;;;;;;;;;;;11.50;99.90;;;;;;5032850;28;19909;-91
2022/12/21 02:33:51;;;;;;;;;;;11.40;99.90;;;;;;5015465;28;19916;-91
2022/12/21 02:36:25;;;;;;;;;;;11.40;99.90;;;;;;5015483;28;20382;-91
2022/12/21 02:39:03;;;;;;;;;;;11.40;99.90;;;;;;5033088;28;19913;-91
2022/12/21 02:41:47;;;;;;;;;;;11.40;99.90;;;;;;5032706;28;19935;-91
2022/12/21 02:44:24;;;;;;;;;;;11.50;99.90;;;;;;5015271;28;19913;-91
2022/12/21 02:47:08;;;;;;;;;;;11.50;99.90;;;;;;5015095;28;19921;-90
2022/12/21 02:49:46;;;;;;;;;;;11.50;99.90;;;;;;5015022;28;19909;-90
2022/12/21 02:52:15;;;;;;;;;;;11.50;99.90;;;;;;5014833;28;19909;-91
2022/12/21 02:54:40;;;;;;;;;;;11.50;99.90;;;;;;5015398;28;19917;-91
2022/12/21 02:57:06;;;;;;;;;;;11.50;99.90;;;;;;5032797;28;19909;-91
2022/12/21 02:59:34;;;;;;;;;;;11.50;99.90;;;;;;5015117;28;19909;-91
2022/12/21 03:02:14;;;;;;;;;;;11.50;99.90;;;;;;5032210;28;19909;-90
2022/12/21 03:04:57;;;;;;;;;;;11.50;99.90;;;;;;5032769;28;19963;-91
2022/12/21 03:07:41;;;;;;;;;;;11.40;99.90;;;;;;5014945;28;19919;-91
2022/12/21 03:10:12;;;;;;;;;;;11.50;99.90;;;;;;5014998;28;19916;-90
2022/12/21 03:12:53;;;;;;;;;;;11.50;99.90;;;;;;5014529;28;19914;-91
2022/12/21 03:15:37;;;;;;;;;;;11.50;99.90;;;;;;5015113;28;20389;-91
2022/12/21 03:18:12;;;;;;;;;;;11.50;99.90;;;;;;5014820;28;20256;-91
2022/12/21 03:20:40;;;;;;;;;;;11.40;99.90;;;;;;5014833;28;19955;-91
2022/12/21 03:23:38;;;;;;;;;;;11.40;99.90;;;;;;5032342;28;19913;-90
2022/12/21 03:26:07;;;;;;;;;;;11.40;99.90;;;;;;4982408;28;19913;-90
2022/12/21 03:28:33;;;;;;;;;;;11.40;99.90;;;;;;5032493;28;19954;-91
2022/12/21 03:31:03;;;;;;;;;;;11.40;99.90;;;;;;5014479;28;20070;-91
2022/12/21 03:33:30;;;;;;;;;;;11.40;99.90;;;;;;5014741;28;20412;-91
2022/12/21 03:36:02;;;;;;;;;;;11.40;99.90;;;;;;5015092;28;19944;-91
2022/12/21 03:38:36;;;;;;;;;;;11.40;99.90;;;;;;5014811;28;19943;-92
2022/12/21 03:41:05;;;;;;;;;;;11.50;99.90;;;;;;5014482;28;19999;-91
2022/12/21 03:43:35;;;;;;;;;;;11.40;99.90;;;;;;5014712;28;19916;-90
2022/12/21 03:46:08;;;;;;;;;;;11.40;99.90;;;;;;5014559;28;19971;-92
2022/12/21 03:48:37;;;;;;;;;;;11.50;99.90;;;;;;5014732;28;19917;-92
2022/12/21 03:51:05;;;;;;;;;;;11.50;99.90;;;;;;5032048;28;20564;-91
2022/12/21 03:53:30;;;;;;;;;;;11.40;99.90;;;;;;5014806;28;19909;-92
2022/12/21 03:55:57;;;;;;;;;;;11.40;99.90;;;;;;5014785;28;20341;-90
2022/12/21 03:58:23;;;;;;;;;;;11.40;99.90;;;;;;5014915;28;19960;-91
2022/12/21 04:00:58;;;;;;;;;;;11.40;99.90;;;;;;5014787;28;19909;-91
2022/12/21 04:03:29;;;;;;;;;;;11.40;99.90;;;;;;5014617;28;19916;-90
2022/12/21 04:06:01;;;;;;;;;;;11.50;99.90;;;;;;5014689;28;19975;-91
2022/12/21 04:08:28;;;;;;;;;;;11.50;99.90;;;;;;5014538;28;19913;-91
2022/12/21 04:10:53;;;;;;;;;;;11.50;99.90;;;;;;5031921;28;19909;-90
2022/12/21 04:13:19;;;;;;;;;;;11.50;99.90;;;;;;5033201;28;19909;-91
2022/12/21 04:21:13;;;;;;;;;;;11.60;99.90;;;;;;5035569;28;20401;-91
2022/12/21 04:29:06;;;;;;;;;;;11.60;99.90;;;;;;5035612;28;19916;-92
2022/12/21 04:31:32;;;;;;;;;;;11.60;99.90;;;;;;5017550;28;19909;-91
2022/12/21 04:33:57;;;;;;;;;;;11.60;99.90;;;;;;5017653;28;19967;-91
2022/12/21 04:39:07;;;;;;;;;;;11.50;99.90;;;;;;5035718;28;20008;-91
2022/12/21 04:41:33;;;;;;;;;;;11.50;99.90;;;;;;5034942;28;19949;-91
2022/12/21 04:43:59;;;;;;;;;;;11.50;99.90;;;;;;5017430;28;19984;-91
2022/12/21 04:46:24;;;;;;;;;;;11.50;99.90;;;;;;5017601;28;20000;-90
2022/12/21 04:48:50;;;;;;;;;;;11.40;99.90;;;;;;5017453;28;19912;-91
2022/12/21 04:51:17;;;;;;;;;;;11.40;99.90;;;;;;5017109;28;20359;-92
2022/12/21 04:53:42;;;;;;;;;;;11.40;99.90;;;;;;5017266;28;20406;-89
2022/12/21 04:56:08;;;;;;;;;;;11.40;99.90;;;;;;5034959;28;19945;-92
2022/12/21 04:58:34;;;;;;;;;;;11.30;99.90;;;;;;5017193;28;20552;-91
2022/12/21 05:01:01;;;;;;;;;;;11.40;99.90;;;;;;5017175;28;19913;-91
2022/12/21 05:03:27;;;;;;;;;;;11.30;99.90;;;;;;5034873;28;20274;-91
2022/12/21 05:05:53;;;;;;;;;;;11.30;99.90;;;;;;5016825;28;19923;-90
2022/12/21 05:08:18;;;;;;;;;;;11.30;99.90;;;;;;5017158;28;19909;-91
2022/12/21 05:10:43;;;;;;;;;;;11.30;99.90;;;;;;5016925;28;19909;-90
2022/12/21 05:13:09;;;;;;;;;;;11.30;99.90;;;;;;5034331;28;20385;-91
2022/12/21 05:15:35;;;;;;;;;;;11.30;99.90;;;;;;5016943;28;19917;-91
2022/12/21 05:18:00;;;;;;;;;;;11.30;99.90;;;;;;5017120;28;20004;-91
2022/12/21 05:20:26;;;;;;;;;;;11.30;99.90;;;;;;5016942;28;19992;-91
2022/12/21 05:22:52;;;;;;;;;;;11.20;99.90;;;;;;5034057;28;19917;-91
2022/12/21 05:25:17;;;;;;;;;;;11.20;99.90;;;;;;5016671;28;20434;-90
2022/12/21 05:27:43;;;;;;;;;;;11.10;99.90;;;;;;5016832;28;19917;-91
2022/12/21 05:30:08;;;;;;;;;;;11.10;99.90;;;;;;5016534;28;20007;-91
2022/12/21 05:32:34;;;;;;;;;;;11.10;99.90;;;;;;5016189;28;19909;-92
2022/12/21 05:34:59;;;;;;;;;;;11.10;99.90;;;;;;5034203;28;19909;-90
2022/12/21 05:37:26;;;;;;;;;;;11.20;99.90;;;;;;5016501;28;19909;-91
2022/12/21 05:39:51;;;;;;;;;;;11.10;99.90;;;;;;5016322;28;19909;-89
2022/12/21 05:42:17;;;;;;;;;;;11.10;99.90;;;;;;5016035;28;19919;-91
2022/12/21 05:44:42;;;;;;;;;;;11.10;99.90;;;;;;5016376;28;19917;-90
2022/12/21 05:47:08;;;;;;;;;;;11.10;99.90;;;;;;5016217;28;19917;-90
2022/12/21 05:49:33;;;;;;;;;;;11.10;99.90;;;;;;5016310;28;20352;-91
2022/12/21 05:51:59;;;;;;;;;;;11.10;99.90;;;;;;5015770;28;19960;-90
2022/12/21 05:54:24;;;;;;;;;;;11.00;99.90;;;;;;5016334;28;20003;-91
2022/12/21 05:56:52;;;;;;;;;;;11.00;99.90;;;;;;5016099;28;20290;-91
2022/12/21 05:59:18;;;;;;;;;;;11.10;99.90;;;;;;5015918;28;19963;-91
2022/12/21 06:01:43;;;;;;;;;;;11.10;99.90;;;;;;5033360;28;19909;-91
2022/12/21 06:04:08;;;;;;;;;;;11.20;99.90;;;;;;5016024;28;19909;-90
2022/12/21 06:06:34;;;;;;;;;;;11.20;99.90;;;;;;5015844;28;19913;-91
2022/12/21 06:08:59;;;;;;;;;;;11.20;99.90;;;;;;5015908;28;19999;-90
2022/12/21 06:11:25;;;;;;;;;;;11.30;99.90;;;;;;5015506;28;20017;-91
2022/12/21 06:13:51;;;;;;;;;;;11.30;99.90;;;;;;5015768;28;19916;-91
2022/12/21 06:16:18;;;;;;;;;;;11.30;99.90;;;;;;5016242;28;20363;-89
2022/12/21 06:18:43;;;;;;;;;;;11.30;99.90;;;;;;5015722;28;19909;-90
2022/12/21 06:21:10;;;;;;;;;;;11.30;99.90;;;;;;5016438;28;19963;-91
2022/12/21 06:23:35;;;;;;;;;;;11.30;99.90;;;;;;5032272;28;20004;-91
2022/12/21 06:26:02;;;;;;;;;;;11.30;99.90;;;;;;5031855;28;20008;-90
2022/12/21 06:28:27;;;;;;;;;;;11.40;99.90;;;;;;5032313;28;20015;-91
2022/12/21 06:30:53;;;;;;;;;;;11.40;99.90;;;;;;5032003;28;19964;-89
2022/12/21 06:33:19;;;;;;;;;;;11.30;99.90;;;;;;5031920;28;20338;-91
2022/12/21 06:35:45;;;;;;;;;;;11.30;99.90;;;;;;5031501;28;19909;-91
2022/12/21 06:38:11;;;;;;;;;;;11.30;99.90;;;;;;5031853;28;19913;-92
2022/12/21 06:40:36;;;;;;;;;;;11.40;99.90;;;;;;5031815;28;19913;-91
2022/12/21 06:43:02;;;;;;;;;;;11.40;99.90;;;;;;5031712;28;20347;-91
2022/12/21 06:45:27;;;;;;;;;;;11.30;99.90;;;;;;5031664;28;20322;-91
2022/12/21 06:47:53;;;;;;;;;;;11.30;99.90;;;;;;5031613;28;19909;-92
2022/12/21 06:50:19;;;;;;;;;;;11.30;99.90;;;;;;5031524;28;19996;-91
2022/12/21 06:52:46;;;;;;;;;;;11.20;99.90;;;;;;5031812;28;20374;-91
2022/12/21 06:55:11;;;;;;;;;;;11.20;99.90;;;;;;5031914;28;20382;-92
2022/12/21 06:57:37;;;;;;;;;;;11.20;99.90;;;;;;5031539;28;19952;-92
2022/12/21 07:00:02;;;;;;;;;;;11.20;99.90;;;;;;5031486;28;19909;-91
2022/12/21 07:02:28;;;;;;;;;;;11.10;99.90;;;;;;5031285;28;19913;-91
2022/12/21 07:04:53;;;;;;;;;;;11.10;99.90;;;;;;5031625;28;19983;-91
2022/12/21 07:07:19;;;;;;;;;;;11.10;99.90;;;;;;5031625;28;19920;-91
2022/12/21 07:09:44;;;;;;;;;;;11.10;99.90;;;;;;5031793;28;19916;-91
2022/12/21 07:12:10;;;;;;;;;;;11.10;99.90;;;;;;5031127;28;19945;-91
2022/12/21 07:14:36;;;;;;;;;;;11.00;99.90;;;;;;5031429;28;19910;-92
2022/12/21 07:17:01;;;;;;;;;;;11.00;99.90;;;;;;5031821;28;20008;-88
2022/12/21 07:19:27;;;;;;;;;;;11.00;99.90;;;;;;5031687;28;20314;-88
2022/12/21 07:21:53;;;;;;;;;;;11.00;99.90;;;;;;5030862;28;19921;-91
2022/12/21 07:24:18;;;;;;;;;;;10.90;99.90;;;;;;5031350;28;19909;-91
2022/12/21 07:26:44;;;;;;;;;;;10.90;99.90;;;;;;5031294;28;19952;-91
2022/12/21 07:29:10;;;;;;;;;;;10.90;99.90;;;;;;5031615;28;20057;-90
2022/12/21 07:31:35;;;;;;;;;;;10.90;99.90;;;;;;5031124;28;19916;-91
2022/12/21 07:34:01;;;;;;;;;;;10.90;99.90;;;;;;5031243;28;19909;-90
2022/12/21 07:36:26;;;;;;;;;;;10.90;99.90;;;;;;5031125;28;19979;-92
2022/12/21 07:38:53;;;;;;;;;;;10.90;99.90;;;;;;5031696;28;19917;-91
2022/12/21 07:41:19;;;;;;;;;;;10.90;99.90;;;;;;5078009;23;19932;-81
2022/12/21 07:43:45;;;;;;;;;;;10.90;99.90;;;;;;5051300;28;19913;-81
2022/12/21 07:46:11;;;;;;;;;;;11.00;99.90;;;;;;5050755;28;19913;-81
2022/12/21 07:48:37;;;;;;;;;;;11.00;99.90;;;;;;5069415;28;20389;-81
2022/12/21 07:51:03;;;;;;;;;;;11.10;99.90;;;;;;5054592;28;19913;-81
2022/12/21 07:53:28;;;;;;;;;;;11.00;99.90;;;;;;5056133;28;19959;-81
2022/12/21 07:56:01;;;;;;;;;;;10.90;99.90;;;;;;5054663;28;19931;-81
2022/12/21 07:58:26;;;;;;;;;;;10.90;99.90;;;;;;5055996;28;19913;-81
2022/12/21 08:00:52;;;;;;;;;;;10.90;99.90;;;;;;5054498;28;19912;-81
2022/12/21 08:03:17;;;;;;;;;;;10.70;99.90;;;;;;5054373;28;19909;-81
2022/12/21 08:05:43;;;;;;;;;;;10.70;99.90;;;;;;5054465;28;19913;-81
2022/12/21 08:08:08;;;;;;;;;;;10.60;99.90;;;;;;5055768;28;19909;-81
2022/12/21 08:10:34;;;;;;;;;;;10.60;99.90;;;;;;5054387;28;19908;-81
2022/12/21 08:13:00;;;;;;;;;;;10.60;99.90;;;;;;5054281;28;19909;-82
2022/12/21 08:15:25;;;;;;;;;;;10.70;99.90;;;;;;5054337;28;19916;-81
2022/12/21 08:17:51;;;;;;;;;;;10.80;99.90;;;;;;5055634;28;19962;-81
2022/12/21 08:20:17;;;;;;;;;;;10.90;99.90;;;;;;5055571;28;19909;-81
2022/12/21 08:22:43;;;;;;;;;;;10.90;99.90;;;;;;5054157;28;19916;-81
2022/12/21 08:25:09;;;;;;;;;;;11.00;99.90;;;;;;5055425;28;19908;-81
2022/12/21 08:27:34;;;;;;;;;;;11.10;99.90;;;;;;5055402;28;19913;-80
2022/12/21 08:30:00;;;;;;;;;;;11.10;99.90;;;;;;5055508;28;19947;-80
2022/12/21 08:32:25;;;;;;;;;;;11.10;99.90;;;;;;5053812;28;19912;-80
2022/12/21 08:34:51;;;;;;;;;;;11.20;99.90;;;;;;5055148;28;19913;-80
2022/12/21 08:37:16;;;;;;;;;;;11.20;99.90;;;;;;5053837;28;19916;-80
2022/12/21 08:39:41;;;;;;;;;;;11.30;99.90;;;;;;5054957;28;20286;-80
2022/12/21 08:42:07;;;;;;;;;;;11.30;99.90;;;;;;5054892;28;19923;-80
2022/12/21 08:44:32;;;;;;;;;;;11.30;99.90;;;;;;5053727;28;20370;-80
2022/12/21 08:46:58;;;;;;;;;;;11.40;99.90;;;;;;5055008;28;19983;-81
2022/12/21 08:49:23;;;;;;;;;;;11.40;99.90;;;;;;5054915;28;19909;-80
2022/12/21 08:51:49;;;;;;;;;;;11.40;99.90;;;;;;5054512;28;20393;-80
2022/12/21 08:54:14;;;;;;;;;;;11.40;99.90;;;;;;5053441;28;19913;-80
2022/12/21 08:56:40;;;;;;;;;;;11.40;99.90;;;;;;5054908;28;19915;-80
2022/12/21 08:59:07;;;;;;;;;;;11.50;99.90;;;;;;5054396;28;19952;-81
2022/12/21 09:01:33;;;;;;;;;;;11.50;99.90;;;;;;5053059;28;19909;-80
2022/12/21 09:03:58;;;;;;;;;;;11.50;99.90;;;;;;5053471;28;19931;-81
2022/12/21 09:06:24;;;;;;;;;;;11.50;99.90;;;;;;5053107;28;19920;-80
2022/12/21 09:08:50;;;;;;;;;;;11.50;99.90;;;;;;5053192;28;19909;-81
2022/12/21 09:11:16;;;;;;;;;;;11.60;99.90;;;;;;5054230;28;19974;-81
2022/12/21 09:13:41;;;;;;;;;;;11.60;99.90;;;;;;5053185;28;19908;-81
2022/12/21 09:16:11;;;;;;;;;;;11.60;99.90;;;;;;5054309;28;19963;-80
2022/12/21 09:18:37;;;;;;;;;;;11.70;99.90;;;;;;5054518;28;19954;-81
2022/12/21 09:21:02;;;;;;;;;;;11.70;99.90;;;;;;5053965;28;19999;-80
2022/12/21 09:23:28;;;;;;;;;;;11.60;99.90;;;;;;5054276;28;20362;-81
2022/12/21 09:25:53;;;;;;;;;;;11.70;99.90;;;;;;5054293;28;19923;-81
2022/12/21 09:28:19;;;;;;;;;;;11.60;99.90;;;;;;5054423;28;19963;-81
2022/12/21 09:30:44;;;;;;;;;;;11.50;99.90;;;;;;5052746;28;20279;-81
2022/12/21 09:33:10;;;;;;;;;;;11.50;99.90;;;;;;5054756;28;19955;-81
2022/12/21 09:35:36;;;;;;;;;;;11.60;99.90;;;;;;5052830;28;19967;-81
2022/12/21 09:38:03;;;;;;;;;;;11.50;99.90;;;;;;5052667;28;20366;-81
2022/12/21 09:40:29;;;;;;;;;;;11.50;99.90;;;;;;5052869;28;19912;-81
2022/12/21 09:43:05;;;;;;;;;;;11.70;99.90;;;;;;5053486;28;19982;-81
2022/12/21 09:45:54;;;;;;;;;;;11.70;99.90;;;;;;5052570;28;19909;-81
2022/12/21 09:48:22;;;;;;;;;;;11.70;99.90;;;;;;5054344;28;20408;-81
2022/12/21 09:50:57;;;;;;;;;;;11.50;99.90;;;;;;5052376;28;20397;-81
2022/12/21 09:53:25;;;;;;;;;;;11.50;99.90;;;;;;5052364;28;19909;-81
2022/12/21 09:55:56;;;;;;;;;;;11.30;99.90;;;;;;5052362;28;20263;-81
2022/12/21 09:58:24;;;;;;;;;;;11.20;99.90;;;;;;5053967;28;19955;-80
2022/12/21 10:00:52;;;;;;;;;;;11.10;99.90;;;;;;5053765;28;19908;-81
2022/12/21 10:03:27;;;;;;;;;;;11.10;99.90;;;;;;5052284;28;20425;-81
2022/12/21 10:06:18;;;;;;;;;;;11.10;99.90;;;;;;5053686;28;20471;-81
2022/12/21 10:09:03;;;;;;;;;;;11.10;99.90;;;;;;5052269;28;20003;-81
2022/12/21 10:11:47;;;;;;;;;;;11.00;99.90;;;;;;5052442;28;19909;-81
2022/12/21 10:14:18;;;;;;;;;;;11.20;99.90;;;;;;5053005;28;19908;-79
2022/12/21 10:16:53;;;;;;;;;;;11.60;99.90;;;;;;5049190;28;20282;-83
2022/12/21 10:19:25;;;;;;;;;;;11.90;99.90;;;;;;5052019;28;20355;-82
2022/12/21 10:21:50;;;;;;;;;;;11.90;99.90;;;;;;5051845;28;19909;-82
2022/12/21 10:24:28;;;;;;;;;;;12.00;99.90;;;;;;5051946;28;19919;-82
2022/12/21 10:26:56;;;;;;;;;;;11.90;99.90;;;;;;5050399;28;19920;-81
2022/12/21 10:29:25;;;;;;;;;;;11.70;99.90;;;;;;5052613;28;19976;-81
2022/12/21 10:31:52;;;;;;;;;;;11.80;99.90;;;;;;5052696;28;20329;-84
2022/12/21 10:34:22;;;;;;;;;;;11.80;99.90;;;;;;5051889;28;19909;-80
2022/12/21 10:36:52;;;;;;;;;;;11.70;99.90;;;;;;5051685;28;19924;-81
2022/12/21 10:39:17;;;;;;;;;;;11.50;99.90;;;;;;5053234;28;19908;-83
2022/12/21 10:41:45;;;;;;;;;;;11.50;99.90;;;;;;5052512;28;20005;-82
2022/12/21 10:44:12;;;;;;;;;;;11.40;99.90;;;;;;5053348;28;19908;-81
2022/12/21 10:46:37;;;;;;;;;;;11.40;99.90;;;;;;5051792;28;20354;-82
2022/12/21 10:49:23;;;;;;;;;;;11.30;99.90;;;;;;5051794;28;19916;-81
2022/12/21 10:51:48;;;;;;;;;;;11.30;99.90;;;;;;5051503;28;19908;-80
2022/12/21 10:54:23;;;;;;;;;;;11.20;99.90;;;;;;5053020;28;19915;-82
2022/12/21 10:56:49;;;;;;;;;;;11.40;99.90;;;;;;5051867;28;19952;-81
2022/12/21 10:59:18;;;;;;;;;;;11.40;99.90;;;;;;5052900;28;19909;-82
2022/12/21 11:01:44;;;;;;;;;;;11.40;99.90;;;;;;5052637;28;19916;-82
2022/12/21 11:04:12;;;;;;;;;;;11.20;99.90;;;;;;5051852;28;19909;-82
2022/12/21 11:06:38;;;;;;;;;;;11.20;99.90;;;;;;5052889;28;19913;-80
2022/12/21 11:09:23;;;;;;;;;;;11.50;99.90;;;;;;5052962;28;19915;-81
2022/12/21 11:11:52;;;;;;;;;;;11.80;99.90;;;;;;5052432;28;19970;-82
2022/12/21 11:14:17;;;;;;;;;;;11.90;99.90;;;;;;5051387;28;19935;-81
2022/12/21 11:16:44;;;;;;;;;;;11.90;99.90;;;;;;5051623;28;19908;-80
2022/12/21 11:19:17;;;;;;;;;;;12.00;99.90;;;;;;5051672;28;19909;-81
2022/12/21 11:21:46;;;;;;;;;;;12.00;99.90;;;;;;5052076;28;19916;-81
2022/12/21 11:24:11;;;;;;;;;;;12.50;99.90;;;;;;5055663;28;19944;-81
2022/12/21 11:26:42;;;;;;;;;;;12.90;99.90;;;;;;5056822;28;20352;-81
2022/12/21 11:29:13;;;;;;;;;;;13.10;99.90;;;;;;5055697;28;19908;-81
2022/12/21 11:31:39;;;;;;;;;;;13.30;99.90;;;;;;5056408;28;19920;-81
2022/12/21 11:34:04;;;;;;;;;;;13.50;99.90;;;;;;5056677;28;20281;-81
2022/12/21 11:36:30;;;;;;;;;;;13.30;99.90;;;;;;5055476;28;19909;-81
2022/12/21 11:38:55;;;;;;;;;;;12.90;99.90;;;;;;5056747;28;19912;-82
2022/12/21 11:41:21;;;;;;;;;;;12.70;99.90;;;;;;5055057;28;19959;-81
2022/12/21 11:43:48;;;;;;;;;;;12.60;99.90;;;;;;5055364;28;20431;-81
2022/12/21 11:46:30;;;;;;;;;;;12.40;99.90;;;;;;5055904;28;20015;-80
2022/12/21 11:49:15;;;;;;;;;;;12.30;99.90;;;;;;5055798;28;19913;-80
2022/12/21 11:51:45;;;;;;;;;;;12.00;99.90;;;;;;5056864;28;19931;-81
2022/12/21 11:54:10;;;;;;;;;;;12.00;99.90;;;;;;5066986;28;19908;-82
2022/12/21 11:56:42;;;;;;;;;;;11.80;99.90;;;;;;5067215;28;20003;-82
2022/12/21 11:59:20;;;;;;;;;;;11.70;99.90;;;;;;5063433;28;20277;-83
2022/12/21 12:02:01;;;;;;;;;;;11.80;99.90;;;;;;5061427;28;19919;-82
2022/12/21 12:04:40;;;;;;;;;;;12.00;99.90;;;;;;5062454;28;20003;-82
2022/12/21 12:07:18;;;;;;;;;;;12.10;99.90;;;;;;5061891;28;20294;-83
2022/12/21 12:09:56;;;;;;;;;;;12.20;99.90;;;;;;5060483;28;19955;-82
2022/12/21 12:12:34;;;;;;;;;;;12.20;99.90;;;;;;5059624;28;19916;-82
2022/12/21 12:15:08;;;;;;;;;;;12.50;99.90;;;;;;5060258;28;19913;-83
2022/12/21 12:17:52;;;;;;;;;;;12.50;99.90;;;;;;5061468;28;20326;-83
2022/12/21 12:20:18;;;;;;;;;;;12.60;99.90;;;;;;5059542;28;19991;-83
2022/12/21 12:23:02;;;;;;;;;;;13.10;99.90;;;;;;5060258;28;19972;-82
2022/12/21 12:25:30;;;;;;;;;;;13.40;99.90;;;;;;5060424;28;19935;-82
2022/12/21 12:27:59;;;;;;;;;;;14.00;99.90;;;;;;5059452;28;19928;-82
2022/12/21 12:30:28;;;;;;;;;;;15.20;99.90;;;;;;5060280;28;19908;-83
2022/12/21 12:33:01;;;;;;;;;;;15.70;99.90;;;;;;5059080;28;19916;-83
2022/12/21 12:35:32;;;;;;;;;;;16.30;99.90;;;;;;5057855;28;19913;-83
2022/12/21 12:38:18;;;;;;;;;;;16.60;99.90;;;;;;5059415;28;19936;-83
2022/12/21 12:40:53;;;;;;;;;;;16.30;99.90;;;;;;5042361;28;19951;-81
2022/12/21 12:43:37;;;;;;;;;;;16.00;99.90;;;;;;5053666;28;19909;-81
2022/12/21 12:46:14;;;;;;;;;;;15.70;99.90;;;;;;5046482;28;20405;-82
2022/12/21 12:48:42;;;;;;;;;;;15.30;99.90;;;;;;5057233;28;19928;-83
2022/12/21 12:51:16;;;;;;;;;;;14.80;99.90;;;;;;5055527;28;19913;-82
2022/12/21 12:53:48;;;;;;;;;;;14.40;99.90;;;;;;5056182;28;19909;-84
2022/12/21 12:56:32;;;;;;;;;;;14.20;99.90;;;;;;5055052;28;19924;-82
2022/12/21 12:58:58;;;;;;;;;;;14.20;99.90;;;;;;5056124;28;19908;-84
2022/12/21 13:01:23;;;;;;;;;;;14.10;99.90;;;;;;5056425;28;19909;-83
2022/12/21 13:04:18;;;;;;;;;;;14.20;99.90;;;;;;5055412;28;20374;-83
2022/12/21 13:06:50;;;;;;;;;;;14.40;99.90;;;;;;5018488;28;19987;-83
2022/12/21 13:09:16;;;;;;;;;;;14.40;99.90;;;;;;5053984;28;19913;-82
2022/12/21 13:12:00;;;;;;;;;;;14.20;99.90;;;;;;5055386;28;20474;-82
2022/12/21 13:14:32;;;;;;;;;;;14.00;99.90;;;;;;5056257;28;19913;-83
2022/12/21 13:17:04;;;;;;;;;;;13.90;99.90;;;;;;5053640;28;19908;-83
2022/12/21 13:19:30;;;;;;;;;;;13.80;99.90;;;;;;5053679;28;19909;-83
2022/12/21 13:21:59;;;;;;;;;;;13.50;99.90;;;;;;5053795;28;19959;-83
2022/12/21 13:24:35;;;;;;;;;;;13.40;99.90;;;;;;5056735;28;19908;-83
2022/12/21 13:27:03;;;;;;;;;;;13.40;99.90;;;;;;5057534;28;19920;-83
2022/12/21 13:29:33;;;;;;;;;;;13.30;99.90;;;;;;5059087;28;19916;-84
2022/12/21 13:32:10;;;;;;;;;;;13.30;99.90;;;;;;5058450;28;19909;-84
2022/12/21 13:34:42;;;;;;;;;;;13.20;99.90;;;;;;5061229;28;19920;-84
2022/12/21 13:37:10;;;;;;;;;;;13.20;99.90;;;;;;5058119;28;19920;-85
2022/12/21 13:39:39;;;;;;;;;;;13.10;99.90;;;;;;5058268;28;20298;-82
2022/12/21 13:42:08;;;;;;;;;;;13.10;99.90;;;;;;5071717;23;19926;-83
2022/12/21 13:44:35;;;;;;;;;;;13.10;99.90;;;;;;5014192;28;20297;-83
2022/12/21 13:47:02;;;;;;;;;;;13.00;99.90;;;;;;5004467;28;19924;-84
2022/12/21 13:49:50;;;;;;;;;;;13.00;99.90;;;;;;5012537;28;20014;-84
2022/12/21 13:52:19;;;;;;;;;;;13.00;99.90;;;;;;5000593;28;19920;-84
2022/12/21 13:55:03;;;;;;;;;;;13.00;99.90;;;;;;5014518;28;20326;-83
2022/12/21 13:57:47;;;;;;;;;;;13.00;99.90;;;;;;5013168;28;19910;-84
2022/12/21 14:00:24;;;;;;;;;;;13.10;99.90;;;;;;5013237;28;19916;-84
2022/12/21 14:02:55;;;;;;;;;;;13.10;99.90;;;;;;5014032;28;19910;-84
2022/12/21 14:05:27;;;;;;;;;;;13.20;99.90;;;;;;5012931;28;19952;-84
2022/12/21 14:08:11;;;;;;;;;;;13.10;99.90;;;;;;5014390;28;19914;-83
2022/12/21 14:10:57;;;;;;;;;;;13.10;99.90;;;;;;5014738;28;19913;-84
2022/12/21 14:13:22;;;;;;;;;;;13.20;99.90;;;;;;5013842;28;20000;-84
2022/12/21 14:15:53;;;;;;;;;;;13.10;99.90;;;;;;5013177;28;19949;-84
2022/12/21 14:18:18;;;;;;;;;;;13.00;99.90;;;;;;5013063;28;19916;-84
2022/12/21 14:20:49;;;;;;;;;;;13.00;99.90;;;;;;5013168;28;20279;-84
2022/12/21 14:23:27;;;;;;;;;;;13.00;99.90;;;;;;5012808;28;19909;-84
2022/12/21 14:25:53;;;;;;;;;;;13.00;99.90;;;;;;5014547;28;19914;-84
2022/12/21 14:28:40;;;;;;;;;;;12.90;99.90;;;;;;5013061;28;19916;-84
2022/12/21 14:31:09;;;;;;;;;;;12.80;99.90;;;;;;5013888;28;19910;-84
2022/12/21 14:33:43;;;;;;;;;;;12.80;99.90;;;;;;5012960;28;19909;-83
2022/12/21 14:36:10;;;;;;;;;;;12.70;99.90;;;;;;5013089;28;19909;-84
2022/12/21 14:38:36;;;;;;;;;;;12.60;99.90;;;;;;5012744;28;20367;-83
2022/12/21 14:41:07;;;;;;;;;;;12.40;99.90;;;;;;5012795;28;19956;-84